sensor_id;sensor_type;location;lat;lon;timestamp;temperature;humidity
75931;DHT22;64609;47.052;15.462;2023-09-19T00:02:16;23.40;77.70
75931;DHT22;64609;47.052;15.462;2023-09-19T00:04:43;23.40;78.10
75931;DHT22;64609;47.052;15.462;2023-09-19T00:07:08;23.40;78.40
75931;DHT22;64609;47.052;15.462;2023-09-19T00:09:37;23.40;78.30
75931;DHT22;64609;47.052;15.462;2023-09-19T00:12:06;23.40;78.30
75931;DHT22;64609;47.052;15.462;2023-09-19T00:14:32;23.40;78.70
75931;DHT22;64609;47.052;15.462;2023-09-19T00:17:04;23.40;78.70
75931;DHT22;64609;47.052;15.462;2023-09-19T00:19:36;23.30;78.90
75931;DHT22;64609;47.052;15.462;2023-09-19T00:22:03;23.20;79.10
75931;DHT22;64609;47.052;15.462;2023-09-19T00:24:29;23.20;79.40
75931;DHT22;64609;47.052;15.462;2023-09-19T00:26:56;23.20;79.50
75931;DHT22;64609;47.052;15.462;2023-09-19T00:29:22;23.20;79.60
75931;DHT22;64609;47.052;15.462;2023-09-19T00:31:49;23.20;79.70
75931;DHT22;64609;47.052;15.462;2023-09-19T00:34:15;23.20;79.70
75931;DHT22;64609;47.052;15.462;2023-09-19T00:36:42;23.20;79.50
75931;DHT22;64609;47.052;15.462;2023-09-19T00:39:08;23.20;79.40
75931;DHT22;64609;47.052;15.462;2023-09-19T00:41:34;23.20;79.30
75931;DHT22;64609;47.052;15.462;2023-09-19T00:44:02;23.20;79.20
75931;DHT22;64609;47.052;15.462;2023-09-19T00:46:29;23.20;79.20
75931;DHT22;64609;47.052;15.462;2023-09-19T00:48:55;23.20;79.20
75931;DHT22;64609;47.052;15.462;2023-09-19T00:51:22;23.20;79.10
75931;DHT22;64609;47.052;15.462;2023-09-19T00:53:48;23.20;79.10
75931;DHT22;64609;47.052;15.462;2023-09-19T00:56:15;23.20;79.10
75931;DHT22;64609;47.052;15.462;2023-09-19T00:58:46;23.20;79.10
75931;DHT22;64609;47.052;15.462;2023-09-19T01:01:16;23.20;79.10
75931;DHT22;64609;47.052;15.462;2023-09-19T01:03:42;23.20;79.10
75931;DHT22;64609;47.052;15.462;2023-09-19T01:06:09;23.20;79.10
75931;DHT22;64609;47.052;15.462;2023-09-19T01:08:35;23.20;79.10
75931;DHT22;64609;47.052;15.462;2023-09-19T01:11:33;23.10;79.00
75931;DHT22;64609;47.052;15.462;2023-09-19T01:14:31;23.10;79.00
75931;DHT22;64609;47.052;15.462;2023-09-19T01:17:27;23.10;78.70
75931;DHT22;64609;47.052;15.462;2023-09-19T01:23:08;23.10;78.50
75931;DHT22;64609;47.052;15.462;2023-09-19T01:28:21;23.10;78.60
75931;DHT22;64609;47.052;15.462;2023-09-19T01:30:59;23.10;78.50
75931;DHT22;64609;47.052;15.462;2023-09-19T01:33:27;23.00;78.50
75931;DHT22;64609;47.052;15.462;2023-09-19T01:35:53;23.00;78.50
75931;DHT22;64609;47.052;15.462;2023-09-19T01:38:24;23.00;78.60
75931;DHT22;64609;47.052;15.462;2023-09-19T01:41:01;23.10;78.70
75931;DHT22;64609;47.052;15.462;2023-09-19T01:43:38;23.10;78.70
75931;DHT22;64609;47.052;15.462;2023-09-19T01:46:12;23.10;78.50
75931;DHT22;64609;47.052;15.462;2023-09-19T01:49:04;23.00;78.40
75931;DHT22;64609;47.052;15.462;2023-09-19T01:51:42;23.00;78.50
75931;DHT22;64609;47.052;15.462;2023-09-19T01:54:12;23.00;78.50
75931;DHT22;64609;47.052;15.462;2023-09-19T01:57:07;23.00;78.30
75931;DHT22;64609;47.052;15.462;2023-09-19T01:59:40;23.00;78.40
75931;DHT22;64609;47.052;15.462;2023-09-19T02:02:06;23.00;78.50
75931;DHT22;64609;47.052;15.462;2023-09-19T02:04:34;23.00;78.40
75931;DHT22;64609;47.052;15.462;2023-09-19T02:07:03;22.90;78.30
75931;DHT22;64609;47.052;15.462;2023-09-19T02:09:31;22.90;78.20
75931;DHT22;64609;47.052;15.462;2023-09-19T02:12:01;23.00;78.10
75931;DHT22;64609;47.052;15.462;2023-09-19T02:14:27;23.00;78.10
75931;DHT22;64609;47.052;15.462;2023-09-19T02:16:53;23.00;78.00
75931;DHT22;64609;47.052;15.462;2023-09-19T02:19:19;23.00;77.90
75931;DHT22;64609;47.052;15.462;2023-09-19T02:21:46;23.00;77.70
75931;DHT22;64609;47.052;15.462;2023-09-19T02:24:14;23.00;78.10
75931;DHT22;64609;47.052;15.462;2023-09-19T02:26:40;23.00;78.00
75931;DHT22;64609;47.052;15.462;2023-09-19T02:29:06;22.90;78.00
75931;DHT22;64609;47.052;15.462;2023-09-19T02:31:32;22.90;78.20
75931;DHT22;64609;47.052;15.462;2023-09-19T02:33:57;22.90;78.20
75931;DHT22;64609;47.052;15.462;2023-09-19T02:36:23;22.90;78.30
75931;DHT22;64609;47.052;15.462;2023-09-19T02:38:49;22.90;78.30
75931;DHT22;64609;47.052;15.462;2023-09-19T02:41:15;22.90;78.10
75931;DHT22;64609;47.052;15.462;2023-09-19T02:43:41;22.90;78.00
75931;DHT22;64609;47.052;15.462;2023-09-19T02:46:08;22.90;77.90
75931;DHT22;64609;47.052;15.462;2023-09-19T02:48:34;22.90;77.90
75931;DHT22;64609;47.052;15.462;2023-09-19T02:51:01;22.90;77.90
75931;DHT22;64609;47.052;15.462;2023-09-19T02:53:28;22.90;77.80
75931;DHT22;64609;47.052;15.462;2023-09-19T02:55:56;22.90;77.50
75931;DHT22;64609;47.052;15.462;2023-09-19T02:58:22;22.90;77.40
75931;DHT22;64609;47.052;15.462;2023-09-19T03:00:49;22.90;77.40
75931;DHT22;64609;47.052;15.462;2023-09-19T03:03:15;22.80;77.40
75931;DHT22;64609;47.052;15.462;2023-09-19T03:05:44;22.80;77.30
75931;DHT22;64609;47.052;15.462;2023-09-19T03:08:13;22.80;77.30
75931;DHT22;64609;47.052;15.462;2023-09-19T03:10:42;22.80;77.20
75931;DHT22;64609;47.052;15.462;2023-09-19T03:13:08;22.80;76.70
75931;DHT22;64609;47.052;15.462;2023-09-19T03:15:35;22.80;76.70
75931;DHT22;64609;47.052;15.462;2023-09-19T03:18:04;22.80;76.40
75931;DHT22;64609;47.052;15.462;2023-09-19T03:20:30;22.80;76.40
75931;DHT22;64609;47.052;15.462;2023-09-19T03:22:55;22.80;75.90
75931;DHT22;64609;47.052;15.462;2023-09-19T03:25:22;22.80;75.70
75931;DHT22;64609;47.052;15.462;2023-09-19T03:27:48;22.70;75.10
75931;DHT22;64609;47.052;15.462;2023-09-19T03:30:14;22.70;74.40
75931;DHT22;64609;47.052;15.462;2023-09-19T03:32:49;22.70;74.00
75931;DHT22;64609;47.052;15.462;2023-09-19T03:35:16;22.70;73.60
75931;DHT22;64609;47.052;15.462;2023-09-19T03:37:42;22.70;73.70
75931;DHT22;64609;47.052;15.462;2023-09-19T03:40:11;22.70;73.60
75931;DHT22;64609;47.052;15.462;2023-09-19T03:42:40;22.70;73.20
75931;DHT22;64609;47.052;15.462;2023-09-19T03:45:09;22.60;72.80
75931;DHT22;64609;47.052;15.462;2023-09-19T03:47:41;22.70;72.60
75931;DHT22;64609;47.052;15.462;2023-09-19T03:50:07;22.60;72.60
75931;DHT22;64609;47.052;15.462;2023-09-19T03:52:36;22.70;72.30
75931;DHT22;64609;47.052;15.462;2023-09-19T03:55:01;22.60;72.20
75931;DHT22;64609;47.052;15.462;2023-09-19T03:57:30;22.60;72.70
75931;DHT22;64609;47.052;15.462;2023-09-19T03:59:56;22.60;72.50
75931;DHT22;64609;47.052;15.462;2023-09-19T04:02:21;22.50;72.30
75931;DHT22;64609;47.052;15.462;2023-09-19T04:04:51;22.50;72.70
75931;DHT22;64609;47.052;15.462;2023-09-19T04:07:17;22.50;72.20
75931;DHT22;64609;47.052;15.462;2023-09-19T04:09:44;22.50;72.70
75931;DHT22;64609;47.052;15.462;2023-09-19T04:12:11;22.40;72.90
75931;DHT22;64609;47.052;15.462;2023-09-19T04:14:37;22.40;73.20
75931;DHT22;64609;47.052;15.462;2023-09-19T04:17:04;22.40;73.00
75931;DHT22;64609;47.052;15.462;2023-09-19T04:19:30;22.40;72.90
75931;DHT22;64609;47.052;15.462;2023-09-19T04:21:56;22.30;73.30
75931;DHT22;64609;47.052;15.462;2023-09-19T04:24:22;22.30;73.40
75931;DHT22;64609;47.052;15.462;2023-09-19T04:26:47;22.30;73.60
75931;DHT22;64609;47.052;15.462;2023-09-19T04:29:13;22.30;73.80
75931;DHT22;64609;47.052;15.462;2023-09-19T04:31:39;22.30;74.00
75931;DHT22;64609;47.052;15.462;2023-09-19T04:34:06;22.30;74.30
75931;DHT22;64609;47.052;15.462;2023-09-19T04:36:33;22.20;74.50
75931;DHT22;64609;47.052;15.462;2023-09-19T04:38:58;22.20;75.00
75931;DHT22;64609;47.052;15.462;2023-09-19T04:41:24;22.10;75.10
75931;DHT22;64609;47.052;15.462;2023-09-19T04:43:50;22.10;75.60
75931;DHT22;64609;47.052;15.462;2023-09-19T04:46:16;22.10;76.10
75931;DHT22;64609;47.052;15.462;2023-09-19T04:48:43;22.10;76.30
75931;DHT22;64609;47.052;15.462;2023-09-19T04:51:08;22.10;76.70
75931;DHT22;64609;47.052;15.462;2023-09-19T04:53:34;22.00;77.00
75931;DHT22;64609;47.052;15.462;2023-09-19T04:55:59;22.00;77.20
75931;DHT22;64609;47.052;15.462;2023-09-19T04:58:25;22.00;77.20
75931;DHT22;64609;47.052;15.462;2023-09-19T05:00:51;21.90;77.30
75931;DHT22;64609;47.052;15.462;2023-09-19T05:03:17;21.90;77.50
75931;DHT22;64609;47.052;15.462;2023-09-19T05:05:43;21.90;77.70
75931;DHT22;64609;47.052;15.462;2023-09-19T05:08:08;21.90;77.90
75931;DHT22;64609;47.052;15.462;2023-09-19T05:10:35;21.90;77.70
75931;DHT22;64609;47.052;15.462;2023-09-19T05:13:04;21.90;77.50
75931;DHT22;64609;47.052;15.462;2023-09-19T05:15:30;21.90;77.50
75931;DHT22;64609;47.052;15.462;2023-09-19T05:17:56;21.90;77.70
75931;DHT22;64609;47.052;15.462;2023-09-19T05:20:22;21.90;77.80
75931;DHT22;64609;47.052;15.462;2023-09-19T05:23:00;21.90;77.90
75931;DHT22;64609;47.052;15.462;2023-09-19T05:25:35;22.00;77.90
75931;DHT22;64609;47.052;15.462;2023-09-19T05:28:08;21.90;77.70
75931;DHT22;64609;47.052;15.462;2023-09-19T05:30:34;21.90;77.60
75931;DHT22;64609;47.052;15.462;2023-09-19T05:33:04;21.90;78.00
75931;DHT22;64609;47.052;15.462;2023-09-19T05:35:31;21.90;77.90
75931;DHT22;64609;47.052;15.462;2023-09-19T05:37:57;21.90;77.90
75931;DHT22;64609;47.052;15.462;2023-09-19T05:40:24;21.90;78.30
75931;DHT22;64609;47.052;15.462;2023-09-19T05:42:50;21.90;78.30
75931;DHT22;64609;47.052;15.462;2023-09-19T05:45:16;21.90;78.20
75931;DHT22;64609;47.052;15.462;2023-09-19T05:47:51;21.80;78.10
75931;DHT22;64609;47.052;15.462;2023-09-19T05:50:17;21.80;78.20
75931;DHT22;64609;47.052;15.462;2023-09-19T05:52:47;21.80;78.10
75931;DHT22;64609;47.052;15.462;2023-09-19T05:55:17;21.80;78.00
75931;DHT22;64609;47.052;15.462;2023-09-19T05:57:43;21.80;78.10
75931;DHT22;64609;47.052;15.462;2023-09-19T06:00:09;21.90;77.80
75931;DHT22;64609;47.052;15.462;2023-09-19T06:02:39;21.90;77.80
75931;DHT22;64609;47.052;15.462;2023-09-19T06:05:06;21.90;78.00
75931;DHT22;64609;47.052;15.462;2023-09-19T06:07:32;22.00;78.00
75931;DHT22;64609;47.052;15.462;2023-09-19T06:10:04;22.00;77.90
75931;DHT22;64609;47.052;15.462;2023-09-19T06:12:44;22.10;78.20
75931;DHT22;64609;47.052;15.462;2023-09-19T06:15:11;22.10;78.40
75931;DHT22;64609;47.052;15.462;2023-09-19T06:17:46;22.20;78.70
75931;DHT22;64609;47.052;15.462;2023-09-19T06:20:12;22.20;78.80
75931;DHT22;64609;47.052;15.462;2023-09-19T06:22:45;22.20;79.00
75931;DHT22;64609;47.052;15.462;2023-09-19T06:25:12;22.20;78.90
75931;DHT22;64609;47.052;15.462;2023-09-19T06:27:41;22.20;78.50
75931;DHT22;64609;47.052;15.462;2023-09-19T06:30:09;22.20;78.10
75931;DHT22;64609;47.052;15.462;2023-09-19T06:32:35;22.20;78.20
75931;DHT22;64609;47.052;15.462;2023-09-19T06:35:01;22.20;78.10
75931;DHT22;64609;47.052;15.462;2023-09-19T06:37:30;22.20;78.20
75931;DHT22;64609;47.052;15.462;2023-09-19T06:39:55;22.30;78.30
75931;DHT22;64609;47.052;15.462;2023-09-19T06:42:22;22.30;78.20
75931;DHT22;64609;47.052;15.462;2023-09-19T06:44:49;22.30;78.10
75931;DHT22;64609;47.052;15.462;2023-09-19T06:47:14;22.40;77.70
75931;DHT22;64609;47.052;15.462;2023-09-19T06:49:41;22.40;77.80
75931;DHT22;64609;47.052;15.462;2023-09-19T06:52:09;22.50;78.20
75931;DHT22;64609;47.052;15.462;2023-09-19T06:54:35;22.50;78.30
75931;DHT22;64609;47.052;15.462;2023-09-19T06:57:01;22.60;78.10
75931;DHT22;64609;47.052;15.462;2023-09-19T06:59:27;22.60;78.00
75931;DHT22;64609;47.052;15.462;2023-09-19T07:01:52;22.60;77.40
75931;DHT22;64609;47.052;15.462;2023-09-19T07:04:18;22.70;77.30
75931;DHT22;64609;47.052;15.462;2023-09-19T07:06:49;22.80;77.10
75931;DHT22;64609;47.052;15.462;2023-09-19T07:09:16;22.80;77.10
75931;DHT22;64609;47.052;15.462;2023-09-19T07:11:42;22.80;76.80
75931;DHT22;64609;47.052;15.462;2023-09-19T07:14:08;22.90;76.50
75931;DHT22;64609;47.052;15.462;2023-09-19T07:16:37;22.90;75.80
75931;DHT22;64609;47.052;15.462;2023-09-19T07:19:04;22.90;75.70
75931;DHT22;64609;47.052;15.462;2023-09-19T07:21:30;22.90;75.30
75931;DHT22;64609;47.052;15.462;2023-09-19T07:23:56;22.90;74.90
75931;DHT22;64609;47.052;15.462;2023-09-19T07:26:21;22.90;74.80
75931;DHT22;64609;47.052;15.462;2023-09-19T07:28:47;22.90;74.60
75931;DHT22;64609;47.052;15.462;2023-09-19T07:31:13;23.00;74.80
75931;DHT22;64609;47.052;15.462;2023-09-19T07:33:40;23.00;74.50
75931;DHT22;64609;47.052;15.462;2023-09-19T07:36:09;23.00;74.70
75931;DHT22;64609;47.052;15.462;2023-09-19T07:38:36;23.00;75.00
75931;DHT22;64609;47.052;15.462;2023-09-19T07:41:02;23.00;74.90
75931;DHT22;64609;47.052;15.462;2023-09-19T07:43:28;23.00;74.50
75931;DHT22;64609;47.052;15.462;2023-09-19T07:45:53;23.10;74.40
75931;DHT22;64609;47.052;15.462;2023-09-19T07:48:19;23.00;74.60
75931;DHT22;64609;47.052;15.462;2023-09-19T07:50:44;23.00;75.30
75931;DHT22;64609;47.052;15.462;2023-09-19T07:53:11;23.00;74.80
75931;DHT22;64609;47.052;15.462;2023-09-19T07:55:39;23.00;74.30
75931;DHT22;64609;47.052;15.462;2023-09-19T07:58:07;23.10;74.40
75931;DHT22;64609;47.052;15.462;2023-09-19T08:00:32;23.10;73.90
75931;DHT22;64609;47.052;15.462;2023-09-19T08:03:00;23.20;73.30
75931;DHT22;64609;47.052;15.462;2023-09-19T08:05:26;23.40;73.20
75931;DHT22;64609;47.052;15.462;2023-09-19T08:07:52;23.60;73.00
75931;DHT22;64609;47.052;15.462;2023-09-19T08:10:19;23.70;73.20
75931;DHT22;64609;47.052;15.462;2023-09-19T08:12:47;23.80;71.50
75931;DHT22;64609;47.052;15.462;2023-09-19T08:15:18;23.70;71.40
75931;DHT22;64609;47.052;15.462;2023-09-19T08:17:47;23.90;71.80
75931;DHT22;64609;47.052;15.462;2023-09-19T08:20:13;24.00;71.80
75931;DHT22;64609;47.052;15.462;2023-09-19T08:22:52;24.30;71.00
75931;DHT22;64609;47.052;15.462;2023-09-19T08:25:20;24.40;70.20
75931;DHT22;64609;47.052;15.462;2023-09-19T08:27:47;24.50;70.10
75931;DHT22;64609;47.052;15.462;2023-09-19T08:30:18;24.80;70.10
75931;DHT22;64609;47.052;15.462;2023-09-19T08:32:45;25.10;69.70
75931;DHT22;64609;47.052;15.462;2023-09-19T08:35:14;25.30;68.50
75931;DHT22;64609;47.052;15.462;2023-09-19T08:37:39;25.50;67.50
75931;DHT22;64609;47.052;15.462;2023-09-19T08:40:05;25.60;66.40
75931;DHT22;64609;47.052;15.462;2023-09-19T08:42:50;25.70;66.10
75931;DHT22;64609;47.052;15.462;2023-09-19T08:45:17;25.60;65.40
75931;DHT22;64609;47.052;15.462;2023-09-19T08:47:50;25.70;64.80
75931;DHT22;64609;47.052;15.462;2023-09-19T08:50:28;25.80;65.40
75931;DHT22;64609;47.052;15.462;2023-09-19T08:52:55;25.90;65.10
75931;DHT22;64609;47.052;15.462;2023-09-19T08:55:28;25.90;64.50
75931;DHT22;64609;47.052;15.462;2023-09-19T08:58:03;26.10;64.10
75931;DHT22;64609;47.052;15.462;2023-09-19T09:00:30;26.30;63.60
75931;DHT22;64609;47.052;15.462;2023-09-19T09:02:57;26.50;62.70
75931;DHT22;64609;47.052;15.462;2023-09-19T09:05:24;26.70;63.10
75931;DHT22;64609;47.052;15.462;2023-09-19T09:07:50;26.80;61.10
75931;DHT22;64609;47.052;15.462;2023-09-19T09:10:20;26.80;60.60
75931;DHT22;64609;47.052;15.462;2023-09-19T09:12:50;26.80;61.10
75931;DHT22;64609;47.052;15.462;2023-09-19T09:15:18;26.80;60.50
75931;DHT22;64609;47.052;15.462;2023-09-19T09:17:47;26.90;60.80
75931;DHT22;64609;47.052;15.462;2023-09-19T09:20:14;27.00;60.40
75931;DHT22;64609;47.052;15.462;2023-09-19T09:22:53;27.10;59.70
75931;DHT22;64609;47.052;15.462;2023-09-19T09:25:20;27.10;59.20
75931;DHT22;64609;47.052;15.462;2023-09-19T09:28:09;27.10;58.40
75931;DHT22;64609;47.052;15.462;2023-09-19T09:30:36;27.20;58.40
75931;DHT22;64609;47.052;15.462;2023-09-19T09:33:12;27.20;57.60
75931;DHT22;64609;47.052;15.462;2023-09-19T09:35:52;27.20;58.00
75931;DHT22;64609;47.052;15.462;2023-09-19T09:38:23;27.20;58.60
75931;DHT22;64609;47.052;15.462;2023-09-19T09:40:56;27.40;58.70
75931;DHT22;64609;47.052;15.462;2023-09-19T09:43:36;27.40;58.20
75931;DHT22;64609;47.052;15.462;2023-09-19T09:46:14;27.30;58.40
75931;DHT22;64609;47.052;15.462;2023-09-19T09:49:03;27.40;58.50
75931;DHT22;64609;47.052;15.462;2023-09-19T09:51:49;27.30;58.70
75931;DHT22;64609;47.052;15.462;2023-09-19T09:54:29;27.20;58.90
75931;DHT22;64609;47.052;15.462;2023-09-19T09:57:12;27.20;58.90
75931;DHT22;64609;47.052;15.462;2023-09-19T09:59:53;27.20;59.00
75931;DHT22;64609;47.052;15.462;2023-09-19T10:02:29;27.20;58.60
75931;DHT22;64609;47.052;15.462;2023-09-19T10:04:58;27.10;57.90
75931;DHT22;64609;47.052;15.462;2023-09-19T10:07:39;27.00;58.00
75931;DHT22;64609;47.052;15.462;2023-09-19T10:10:15;27.00;58.70
75931;DHT22;64609;47.052;15.462;2023-09-19T10:12:55;27.20;58.90
75931;DHT22;64609;47.052;15.462;2023-09-19T10:15:32;27.30;58.10
75931;DHT22;64609;47.052;15.462;2023-09-19T10:17:58;27.40;57.70
75931;DHT22;64609;47.052;15.462;2023-09-19T10:20:27;27.40;57.20
75931;DHT22;64609;47.052;15.462;2023-09-19T10:23:03;27.60;57.50
75931;DHT22;64609;47.052;15.462;2023-09-19T10:25:37;27.70;56.90
75931;DHT22;64609;47.052;15.462;2023-09-19T10:28:03;27.80;57.20
75931;DHT22;64609;47.052;15.462;2023-09-19T10:30:40;28.00;57.20
75931;DHT22;64609;47.052;15.462;2023-09-19T10:33:09;28.20;56.40
75931;DHT22;64609;47.052;15.462;2023-09-19T10:35:38;28.40;54.30
75931;DHT22;64609;47.052;15.462;2023-09-19T10:38:06;28.40;53.50
75931;DHT22;64609;47.052;15.462;2023-09-19T10:40:35;28.30;53.30
75931;DHT22;64609;47.052;15.462;2023-09-19T10:43:05;28.30;51.80
75931;DHT22;64609;47.052;15.462;2023-09-19T10:45:33;28.40;51.20
75931;DHT22;64609;47.052;15.462;2023-09-19T10:48:02;28.30;51.40
75931;DHT22;64609;47.052;15.462;2023-09-19T10:50:45;28.30;51.40
75931;DHT22;64609;47.052;15.462;2023-09-19T10:53:12;28.40;52.00
75931;DHT22;64609;47.052;15.462;2023-09-19T10:55:39;28.50;52.40
75931;DHT22;64609;47.052;15.462;2023-09-19T10:58:06;28.70;52.20
75931;DHT22;64609;47.052;15.462;2023-09-19T11:00:54;28.80;51.80
75931;DHT22;64609;47.052;15.462;2023-09-19T11:03:21;29.10;52.50
75931;DHT22;64609;47.052;15.462;2023-09-19T11:09:09;29.10;50.80
75931;DHT22;64609;47.052;15.462;2023-09-19T11:11:39;29.20;50.30
75931;DHT22;64609;47.052;15.462;2023-09-19T11:30:51;29.40;49.00
75931;DHT22;64609;47.052;15.462;2023-09-19T11:33:30;29.30;48.30
75931;DHT22;64609;47.052;15.462;2023-09-19T11:36:06;29.20;48.80
75931;DHT22;64609;47.052;15.462;2023-09-19T11:43:52;29.50;48.60
75931;DHT22;64609;47.052;15.462;2023-09-19T11:46:21;29.60;48.80
75931;DHT22;64609;47.052;15.462;2023-09-19T11:48:53;29.60;49.20
75931;DHT22;64609;47.052;15.462;2023-09-19T11:51:23;29.70;49.20
75931;DHT22;64609;47.052;15.462;2023-09-19T11:53:53;29.90;48.90
75931;DHT22;64609;47.052;15.462;2023-09-19T11:56:23;30.00;48.40
75931;DHT22;64609;47.052;15.462;2023-09-19T11:58:52;30.30;47.80
75931;DHT22;64609;47.052;15.462;2023-09-19T12:01:29;30.50;46.60
75931;DHT22;64609;47.052;15.462;2023-09-19T12:03:57;30.60;46.70
75931;DHT22;64609;47.052;15.462;2023-09-19T12:06:25;30.80;46.80
75931;DHT22;64609;47.052;15.462;2023-09-19T12:08:51;31.20;47.10
75931;DHT22;64609;47.052;15.462;2023-09-19T12:11:21;31.50;46.50
75931;DHT22;64609;47.052;15.462;2023-09-19T12:13:47;31.90;45.10
75931;DHT22;64609;47.052;15.462;2023-09-19T12:16:15;32.40;44.20
75931;DHT22;64609;47.052;15.462;2023-09-19T12:18:45;32.80;43.20
75931;DHT22;64609;47.052;15.462;2023-09-19T12:21:25;33.20;42.50
75931;DHT22;64609;47.052;15.462;2023-09-19T12:24:12;33.60;41.20
75931;DHT22;64609;47.052;15.462;2023-09-19T12:26:46;33.90;39.20
75931;DHT22;64609;47.052;15.462;2023-09-19T12:29:19;33.90;39.40
75931;DHT22;64609;47.052;15.462;2023-09-19T12:34:28;33.60;38.40
75931;DHT22;64609;47.052;15.462;2023-09-19T12:37:14;33.30;39.30
75931;DHT22;64609;47.052;15.462;2023-09-19T12:40:04;32.90;39.10
75931;DHT22;64609;47.052;15.462;2023-09-19T12:42:40;32.50;40.10
75931;DHT22;64609;47.052;15.462;2023-09-19T12:45:07;32.40;40.90
75931;DHT22;64609;47.052;15.462;2023-09-19T12:47:35;32.20;40.90
75931;DHT22;64609;47.052;15.462;2023-09-19T12:53:14;32.00;41.00
75931;DHT22;64609;47.052;15.462;2023-09-19T12:55:31;32.00;41.30
75931;DHT22;64609;47.052;15.462;2023-09-19T12:58:14;31.80;41.20
75931;DHT22;64609;47.052;15.462;2023-09-19T13:00:45;31.70;40.70
75931;DHT22;64609;47.052;15.462;2023-09-19T13:05:54;31.00;41.70
75931;DHT22;64609;47.052;15.462;2023-09-19T13:08:26;30.80;42.30
75931;DHT22;64609;47.052;15.462;2023-09-19T13:11:16;30.80;42.90
75931;DHT22;64609;47.052;15.462;2023-09-19T13:14:15;31.20;41.90
75931;DHT22;64609;47.052;15.462;2023-09-19T13:17:07;31.50;41.20
75931;DHT22;64609;47.052;15.462;2023-09-19T13:25:01;30.70;42.10
75931;DHT22;64609;47.052;15.462;2023-09-19T13:27:29;30.50;42.50
75931;DHT22;64609;47.052;15.462;2023-09-19T13:29:55;30.40;43.30
75931;DHT22;64609;47.052;15.462;2023-09-19T13:32:20;30.10;43.50
75931;DHT22;64609;47.052;15.462;2023-09-19T13:34:46;30.00;43.80
75931;DHT22;64609;47.052;15.462;2023-09-19T13:37:11;29.90;44.40
75931;DHT22;64609;47.052;15.462;2023-09-19T13:39:38;29.90;44.90
75931;DHT22;64609;47.052;15.462;2023-09-19T13:42:08;29.80;45.50
75931;DHT22;64609;47.052;15.462;2023-09-19T13:44:37;29.60;44.80
75931;DHT22;64609;47.052;15.462;2023-09-19T13:47:03;29.40;46.10
75931;DHT22;64609;47.052;15.462;2023-09-19T13:49:35;29.30;45.70
75931;DHT22;64609;47.052;15.462;2023-09-19T13:52:01;29.30;45.80
75931;DHT22;64609;47.052;15.462;2023-09-19T13:54:29;29.40;46.00
75931;DHT22;64609;47.052;15.462;2023-09-19T13:56:55;29.40;46.20
75931;DHT22;64609;47.052;15.462;2023-09-19T13:59:20;29.50;45.90
75931;DHT22;64609;47.052;15.462;2023-09-19T14:01:49;29.50;45.90
75931;DHT22;64609;47.052;15.462;2023-09-19T14:04:14;29.50;45.90
75931;DHT22;64609;47.052;15.462;2023-09-19T14:06:42;29.30;46.40
75931;DHT22;64609;47.052;15.462;2023-09-19T14:09:08;29.20;46.20
75931;DHT22;64609;47.052;15.462;2023-09-19T14:11:35;29.30;46.70
75931;DHT22;64609;47.052;15.462;2023-09-19T14:14:01;29.30;46.40
75931;DHT22;64609;47.052;15.462;2023-09-19T14:16:27;29.30;45.70
75931;DHT22;64609;47.052;15.462;2023-09-19T14:18:56;29.30;46.40
75931;DHT22;64609;47.052;15.462;2023-09-19T14:21:22;29.30;46.40
75931;DHT22;64609;47.052;15.462;2023-09-19T14:23:48;29.40;46.50
75931;DHT22;64609;47.052;15.462;2023-09-19T14:26:14;29.30;45.70
75931;DHT22;64609;47.052;15.462;2023-09-19T14:28:41;29.20;46.50
75931;DHT22;64609;47.052;15.462;2023-09-19T14:31:08;29.10;46.60
75931;DHT22;64609;47.052;15.462;2023-09-19T14:33:33;29.00;46.70
75931;DHT22;64609;47.052;15.462;2023-09-19T14:36:06;29.00;46.90
75931;DHT22;64609;47.052;15.462;2023-09-19T14:38:33;28.90;46.80
75931;DHT22;64609;47.052;15.462;2023-09-19T14:41:03;28.90;46.80
75931;DHT22;64609;47.052;15.462;2023-09-19T14:43:29;29.00;47.30
75931;DHT22;64609;47.052;15.462;2023-09-19T14:45:56;29.10;47.00
75931;DHT22;64609;47.052;15.462;2023-09-19T14:48:23;29.00;47.00
75931;DHT22;64609;47.052;15.462;2023-09-19T14:50:51;28.90;47.20
75931;DHT22;64609;47.052;15.462;2023-09-19T14:53:17;28.90;46.90
75931;DHT22;64609;47.052;15.462;2023-09-19T14:55:43;28.80;46.90
75931;DHT22;64609;47.052;15.462;2023-09-19T14:58:10;28.60;47.10
75931;DHT22;64609;47.052;15.462;2023-09-19T15:00:37;28.60;47.50
75931;DHT22;64609;47.052;15.462;2023-09-19T15:03:03;28.60;47.70
75931;DHT22;64609;47.052;15.462;2023-09-19T15:05:29;28.70;47.90
75931;DHT22;64609;47.052;15.462;2023-09-19T15:07:55;28.70;47.60
75931;DHT22;64609;47.052;15.462;2023-09-19T15:10:22;28.70;48.20
75931;DHT22;64609;47.052;15.462;2023-09-19T15:12:48;28.70;47.90
75931;DHT22;64609;47.052;15.462;2023-09-19T15:15:14;28.60;48.20
75931;DHT22;64609;47.052;15.462;2023-09-19T15:17:39;28.60;48.20
75931;DHT22;64609;47.052;15.462;2023-09-19T15:20:06;28.60;48.40
75931;DHT22;64609;47.052;15.462;2023-09-19T15:22:33;28.60;48.10
75931;DHT22;64609;47.052;15.462;2023-09-19T15:25:00;28.60;48.20
75931;DHT22;64609;47.052;15.462;2023-09-19T15:27:30;28.60;48.10
75931;DHT22;64609;47.052;15.462;2023-09-19T15:30:01;28.50;48.20
75931;DHT22;64609;47.052;15.462;2023-09-19T15:32:30;28.40;48.40
75931;DHT22;64609;47.052;15.462;2023-09-19T15:34:56;28.20;48.90
75931;DHT22;64609;47.052;15.462;2023-09-19T15:37:22;28.20;49.20
75931;DHT22;64609;47.052;15.462;2023-09-19T15:39:47;28.10;49.30
75931;DHT22;64609;47.052;15.462;2023-09-19T15:42:13;28.10;49.60
75931;DHT22;64609;47.052;15.462;2023-09-19T15:44:41;28.00;49.70
75931;DHT22;64609;47.052;15.462;2023-09-19T15:47:09;27.90;49.90
75931;DHT22;64609;47.052;15.462;2023-09-19T15:49:35;27.90;50.20
75931;DHT22;64609;47.052;15.462;2023-09-19T15:52:00;27.80;50.30
75931;DHT22;64609;47.052;15.462;2023-09-19T15:54:26;27.80;50.50
75931;DHT22;64609;47.052;15.462;2023-09-19T15:56:53;27.80;50.70
75931;DHT22;64609;47.052;15.462;2023-09-19T15:59:20;27.70;50.90
75931;DHT22;64609;47.052;15.462;2023-09-19T16:01:46;27.70;51.20
75931;DHT22;64609;47.052;15.462;2023-09-19T16:04:12;27.60;51.50
75931;DHT22;64609;47.052;15.462;2023-09-19T16:06:38;27.60;51.90
75931;DHT22;64609;47.052;15.462;2023-09-19T16:09:04;27.60;51.70
75931;DHT22;64609;47.052;15.462;2023-09-19T16:11:33;27.50;51.80
75931;DHT22;64609;47.052;15.462;2023-09-19T16:13:58;27.40;52.20